Time;durP1;ratioP1;P1;durP2;ratioP2;P2;SDS_P1;SDS_P2;PMS_P1;PMS_P2;Temp;Humidity;BMP_temperature;BMP_pressure;BME280_temperature;BME280_humidity;BME280_pressure;Samples;Min_cycle;Max_cycle;Signal;HPM_P1;HPM_P2
2021/09/18 00:00:40;;;;;;;;;;;;;;;13.81;89.90;100498.81;5032240;28;20394;-74
2021/09/18 00:03:05;;;;;;;;;;;;;;;13.88;88.53;100506.13;5032018;28;19986;-74
2021/09/18 00:05:30;;;;;;;;;;;;;;;13.87;89.25;100501.78;5031681;28;20008;-74
2021/09/18 00:07:55;;;;;;;;;;;;;;;13.89;88.94;100507.75;5031179;28;19972;-74
2021/09/18 00:10:21;;;;;;;;;;;;;;;13.88;88.85;100512.25;5031358;28;19921;-74
2021/09/18 00:12:46;;;;;;;;;;;;;;;13.98;86.51;100512.84;5032855;28;19957;-74
2021/09/18 00:15:11;;;;;;;;;;;;;;;13.97;87.49;100510.41;5031108;28;19925;-75
2021/09/18 00:17:36;;;;;;;;;;;;;;;14.01;86.43;100511.69;5032109;28;19928;-75
2021/09/18 00:20:03;;;;;;;;;;;;;;;14.08;85.50;100506.50;5032138;28;19972;-74
2021/09/18 00:22:28;;;;;;;;;;;;;;;14.08;85.04;100503.84;5031983;28;19925;-74
2021/09/18 00:24:53;;;;;;;;;;;;;;;13.98;86.32;100509.38;5031672;28;19927;-74
2021/09/18 00:27:18;;;;;;;;;;;;;;;13.94;86.30;100514.22;5031866;28;19968;-74
2021/09/18 00:29:44;;;;;;;;;;;;;;;13.90;86.12;100515.56;5031099;28;19964;-74
2021/09/18 00:32:09;;;;;;;;;;;;;;;13.87;88.27;100512.41;5031626;28;19925;-74
2021/09/18 00:34:34;;;;;;;;;;;;;;;13.88;88.13;100514.09;5031846;28;19983;-74
2021/09/18 00:36:59;;;;;;;;;;;;;;;13.81;87.35;100513.94;5031488;28;19925;-74
2021/09/18 00:39:24;;;;;;;;;;;;;;;13.78;87.21;100507.16;5031639;28;19921;-74
2021/09/18 00:41:49;;;;;;;;;;;;;;;13.76;87.42;100511.81;5031148;28;19921;-74
2021/09/18 00:44:17;;;;;;;;;;;;;;;13.79;86.28;100513.28;5031049;28;19922;-74
2021/09/18 00:46:43;;;;;;;;;;;;;;;13.75;87.03;100510.16;5031443;28;20011;-74
2021/09/18 00:49:08;;;;;;;;;;;;;;;13.69;88.56;100510.84;5031071;28;19932;-75
2021/09/18 00:51:34;;;;;;;;;;;;;;;13.63;89.24;100508.03;5030812;28;19921;-74
2021/09/18 00:53:59;;;;;;;;;;;;;;;13.61;87.86;100508.22;5030428;28;20368;-74
2021/09/18 00:56:24;;;;;;;;;;;;;;;13.59;88.18;100499.59;5030322;28;19921;-74
2021/09/18 00:58:50;;;;;;;;;;;;;;;13.64;87.30;100505.22;5030520;28;20281;-74
2021/09/18 01:01:15;;;;;;;;;;;;;;;13.68;86.87;100498.56;5030752;28;19921;-74
2021/09/18 01:03:44;;;;;;;;;;;;;;;13.67;87.39;100496.91;5030847;28;19953;-74
2021/09/18 01:06:10;;;;;;;;;;;;;;;13.73;86.90;100492.72;5030184;28;19925;-74
2021/09/18 01:08:35;;;;;;;;;;;;;;;13.75;86.23;100494.22;5031175;28;20405;-75
2021/09/18 01:11:01;;;;;;;;;;;;;;;13.70;86.81;100488.56;5031132;28;19928;-74
2021/09/18 01:13:26;;;;;;;;;;;;;;;13.67;87.08;100490.75;5030199;28;19929;-74
2021/09/18 01:15:51;;;;;;;;;;;;;;;13.66;87.03;100483.78;5031404;28;19924;-74
2021/09/18 01:18:16;;;;;;;;;;;;;;;13.67;86.57;100482.78;5029428;28;20017;-74
2021/09/18 01:20:43;;;;;;;;;;;;;;;13.60;86.89;100490.63;5030804;28;20000;-74
2021/09/18 01:23:09;;;;;;;;;;;;;;;13.65;86.04;100487.44;5030342;28;20297;-74
2021/09/18 01:25:36;;;;;;;;;;;;;;;13.58;86.99;100492.63;5030856;28;19921;-74
2021/09/18 01:28:03;;;;;;;;;;;;;;;13.57;87.08;100494.44;5030110;28;19984;-74
2021/09/18 01:30:29;;;;;;;;;;;;;;;13.60;86.83;100485.31;5030185;28;19936;-74
2021/09/18 01:32:55;;;;;;;;;;;;;;;13.58;86.45;100498.75;5031091;28;19921;-74
2021/09/18 01:35:20;;;;;;;;;;;;;;;13.56;88.13;100491.94;5030504;28;20378;-75
2021/09/18 01:37:47;;;;;;;;;;;;;;;13.53;87.55;100492.31;5030702;28;19928;-74
2021/09/18 01:40:13;;;;;;;;;;;;;;;13.53;87.95;100498.44;5030056;28;19974;-74
2021/09/18 01:42:42;;;;;;;;;;;;;;;13.57;86.49;100499.75;5029273;28;19921;-74
2021/09/18 01:45:07;;;;;;;;;;;;;;;13.52;86.95;100494.13;5030838;28;19952;-74
2021/09/18 01:47:42;;;;;;;;;;;;;;;13.52;87.01;100493.31;5030171;28;20369;-74
2021/09/18 01:50:19;;;;;;;;;;;;;;;13.52;86.49;100490.66;5026527;28;20390;-74
2021/09/18 01:52:47;;;;;;;;;;;;;;;13.49;86.62;100489.19;5026789;28;19975;-74
2021/09/18 01:55:12;;;;;;;;;;;;;;;13.42;87.89;100487.34;5030354;28;20176;-74
2021/09/18 01:57:40;;;;;;;;;;;;;;;13.43;87.48;100478.41;5030363;28;19928;-75
2021/09/18 02:00:06;;;;;;;;;;;;;;;13.46;86.64;100486.03;5030678;28;19934;-74
2021/09/18 02:02:31;;;;;;;;;;;;;;;13.42;86.80;100480.25;5029544;28;20147;-74
2021/09/18 02:04:56;;;;;;;;;;;;;;;13.36;87.78;100475.59;5031316;28;20122;-74
2021/09/18 02:07:21;;;;;;;;;;;;;;;13.35;87.96;100476.63;5029564;28;19925;-74
2021/09/18 02:09:46;;;;;;;;;;;;;;;13.34;87.70;100480.25;5029679;28;20396;-74
2021/09/18 02:12:12;;;;;;;;;;;;;;;13.34;87.59;100478.41;5045384;28;19924;-74
2021/09/18 02:14:37;;;;;;;;;;;;;;;13.42;86.41;100477.59;5029775;28;19971;-74
2021/09/18 02:17:02;;;;;;;;;;;;;;;13.36;87.13;100471.09;5029977;28;20365;-74
2021/09/18 02:19:27;;;;;;;;;;;;;;;13.34;87.77;100474.94;5030119;28;19932;-74
2021/09/18 02:21:53;;;;;;;;;;;;;;;13.36;86.36;100471.09;5030474;28;19967;-74
2021/09/18 02:24:18;;;;;;;;;;;;;;;13.31;87.06;100473.47;5028105;28;19921;-75
2021/09/18 02:26:43;;;;;;;;;;;;;;;13.29;86.65;100467.47;5030541;28;20286;-75
2021/09/18 02:29:08;;;;;;;;;;;;;;;13.24;88.12;100461.81;5028968;28;19940;-74
2021/09/18 02:31:33;;;;;;;;;;;;;;;13.26;86.68;100470.47;5028731;28;19975;-74
2021/09/18 02:33:58;;;;;;;;;;;;;;;13.19;88.79;100464.16;5027765;28;20302;-74
2021/09/18 02:36:24;;;;;;;;;;;;;;;13.14;89.01;100461.19;5026674;28;20283;-75
2021/09/18 02:38:49;;;;;;;;;;;;;;;13.14;87.66;100471.81;5042782;28;19921;-74
2021/09/18 02:41:14;;;;;;;;;;;;;;;13.17;87.02;100461.69;5026613;28;19921;-74
2021/09/18 02:43:39;;;;;;;;;;;;;;;13.12;87.48;100464.00;5029272;28;20015;-74
2021/09/18 02:46:04;;;;;;;;;;;;;;;13.11;88.08;100458.91;5029515;28;19986;-74
2021/09/18 02:48:30;;;;;;;;;;;;;;;13.08;89.08;100468.00;5018451;28;19936;-74
2021/09/18 02:50:55;;;;;;;;;;;;;;;12.98;88.54;100470.03;5029114;28;20012;-74
2021/09/18 02:53:20;;;;;;;;;;;;;;;12.88;88.04;100469.38;5028539;28;19929;-75
2021/09/18 02:55:45;;;;;;;;;;;;;;;12.80;88.96;100469.38;5028089;28;19921;-75
2021/09/18 02:58:10;;;;;;;;;;;;;;;12.72;89.89;100473.69;5028377;28;19928;-74
2021/09/18 03:00:36;;;;;;;;;;;;;;;12.75;89.40;100475.19;5028336;28;19974;-74
2021/09/18 03:03:01;;;;;;;;;;;;;;;12.78;87.76;100472.22;5028711;28;19967;-74
2021/09/18 03:05:26;;;;;;;;;;;;;;;12.74;88.06;100473.53;5028909;28;19928;-74
2021/09/18 03:07:51;;;;;;;;;;;;;;;12.70;88.41;100467.75;5029019;28;19933;-74
2021/09/18 03:10:16;;;;;;;;;;;;;;;12.69;87.85;100466.06;5028514;28;20282;-74
2021/09/18 03:12:42;;;;;;;;;;;;;;;12.67;88.32;100473.38;5028962;28;19921;-74
2021/09/18 03:15:08;;;;;;;;;;;;;;;12.70;87.97;100470.41;5023156;28;19921;-74
2021/09/18 03:17:33;;;;;;;;;;;;;;;12.65;90.59;100464.75;5028592;28;19925;-74
2021/09/18 03:19:58;;;;;;;;;;;;;;;12.66;91.23;100468.25;5029058;28;20019;-75
2021/09/18 03:22:23;;;;;;;;;;;;;;;12.67;92.06;100464.59;5028330;28;19921;-74
2021/09/18 03:24:49;;;;;;;;;;;;;;;12.71;90.59;100468.56;5028586;28;19929;-74
2021/09/18 03:27:14;;;;;;;;;;;;;;;12.78;89.61;100468.75;5028337;28;19976;-74
2021/09/18 03:29:39;;;;;;;;;;;;;;;12.77;90.67;100464.41;5043853;28;19925;-74
2021/09/18 03:32:05;;;;;;;;;;;;;;;12.76;90.67;100466.25;5026662;28;20325;-74
2021/09/18 03:34:30;;;;;;;;;;;;;;;12.73;91.75;100467.41;5027997;28;20353;-74
2021/09/18 03:36:55;;;;;;;;;;;;;;;12.69;90.10;100474.03;5043956;28;19948;-74
2021/09/18 03:39:20;;;;;;;;;;;;;;;12.61;89.61;100467.91;5028855;28;19967;-74
2021/09/18 03:41:46;;;;;;;;;;;;;;;12.58;89.35;100474.38;5028607;28;19925;-74
2021/09/18 03:44:11;;;;;;;;;;;;;;;12.58;88.72;100476.19;5028183;28;19988;-74
2021/09/18 03:46:36;;;;;;;;;;;;;;;12.53;88.56;100472.22;5028384;28;20015;-74
2021/09/18 03:49:01;;;;;;;;;;;;;;;12.46;88.59;100476.50;5028256;28;20269;-74
2021/09/18 03:51:26;;;;;;;;;;;;;;;12.38;89.12;100475.69;5028288;28;19950;-74
2021/09/18 03:53:52;;;;;;;;;;;;;;;12.28;89.71;100473.22;5029389;28;19921;-74
2021/09/18 03:56:17;;;;;;;;;;;;;;;12.30;89.86;100473.88;5027652;28;19928;-74
2021/09/18 03:58:42;;;;;;;;;;;;;;;12.27;89.71;100474.19;5028605;28;19921;-74
2021/09/18 04:01:07;;;;;;;;;;;;;;;12.19;89.62;100472.34;5028451;28;20399;-75
2021/09/18 04:03:32;;;;;;;;;;;;;;;12.09;90.42;100475.16;5028545;28;19921;-74
2021/09/18 04:05:57;;;;;;;;;;;;;;;12.10;92.21;100475.97;5027184;28;20385;-74
2021/09/18 04:08:23;;;;;;;;;;;;;;;12.08;90.91;100470.88;5029050;28;19925;-75
2021/09/18 04:10:48;;;;;;;;;;;;;;;12.00;91.92;100477.97;5030145;28;19932;-75
2021/09/18 04:13:13;;;;;;;;;;;;;;;11.95;91.09;100477.63;5030158;28;19928;-74
2021/09/18 04:15:38;;;;;;;;;;;;;;;11.89;92.45;100479.94;5031033;28;19926;-75
2021/09/18 04:18:03;;;;;;;;;;;;;;;11.83;90.89;100474.41;5033538;28;19917;-75
2021/09/18 04:20:29;;;;;;;;;;;;;;;11.76;91.51;100484.00;5033372;28;20307;-74
2021/09/18 04:22:54;;;;;;;;;;;;;;;11.72;91.57;100477.34;5032687;28;19975;-74
2021/09/18 04:25:19;;;;;;;;;;;;;;;11.66;91.69;100481.47;5025423;28;20008;-74
2021/09/18 04:27:45;;;;;;;;;;;;;;;11.61;91.70;100481.94;5033389;28;20290;-74
2021/09/18 04:30:10;;;;;;;;;;;;;;;11.64;92.80;100486.91;5032797;28;20188;-74
2021/09/18 04:32:35;;;;;;;;;;;;;;;11.68;91.25;100488.28;5032791;28;19964;-74
2021/09/18 04:35:01;;;;;;;;;;;;;;;11.64;92.84;100488.75;5033039;28;20358;-74
2021/09/18 04:37:26;;;;;;;;;;;;;;;11.63;93.03;100487.94;5032952;28;19922;-74
2021/09/18 04:39:51;;;;;;;;;;;;;;;11.58;91.58;100482.25;5032759;28;20278;-74
2021/09/18 04:42:16;;;;;;;;;;;;;;;11.54;91.42;100485.41;5031963;28;20393;-74
2021/09/18 04:44:42;;;;;;;;;;;;;;;11.46;92.49;100494.13;5033430;28;19971;-74
2021/09/18 04:47:07;;;;;;;;;;;;;;;11.42;91.81;100496.25;5033192;28;19921;-74
2021/09/18 04:49:32;;;;;;;;;;;;;;;11.38;92.09;100494.91;5032282;28;19925;-76
2021/09/18 04:51:57;;;;;;;;;;;;;;;11.35;93.27;100494.41;5032501;28;19917;-75
2021/09/18 04:54:23;;;;;;;;;;;;;;;11.35;93.47;100497.88;5032273;28;19925;-74
2021/09/18 04:56:48;;;;;;;;;;;;;;;11.33;93.98;100494.56;5047786;28;20290;-75
2021/09/18 04:59:13;;;;;;;;;;;;;;;11.35;93.32;100497.06;5032054;28;19923;-75
2021/09/18 05:01:38;;;;;;;;;;;;;;;11.33;91.72;100497.22;5032646;28;19925;-75
2021/09/18 05:04:03;;;;;;;;;;;;;;;11.29;93.72;100503.78;5031724;28;19921;-75
2021/09/18 05:06:29;;;;;;;;;;;;;;;11.27;94.15;100503.97;5032607;28;20179;-75
2021/09/18 05:08:54;;;;;;;;;;;;;;;11.27;94.06;100509.25;5032552;28;19933;-76
2021/09/18 05:11:19;;;;;;;;;;;;;;;11.25;93.56;100511.22;5032160;28;19928;-75
2021/09/18 05:13:44;;;;;;;;;;;;;;;11.35;94.09;100512.94;5032009;28;19943;-75
2021/09/18 05:16:10;;;;;;;;;;;;;;;11.35;92.68;100515.59;5032575;28;19921;-75
2021/09/18 05:18:35;;;;;;;;;;;;;;;11.43;93.75;100520.91;5024039;28;20211;-75
2021/09/18 05:21:00;;;;;;;;;;;;;;;11.49;92.99;100525.59;5031822;28;19994;-75
2021/09/18 05:23:25;;;;;;;;;;;;;;;11.49;92.35;100522.94;5032331;28;19921;-74
2021/09/18 05:25:50;;;;;;;;;;;;;;;11.52;92.43;100529.75;5032055;28;19921;-75
2021/09/18 05:28:16;;;;;;;;;;;;;;;11.52;91.66;100527.09;5031246;28;19931;-74
2021/09/18 05:30:41;;;;;;;;;;;;;;;11.54;91.79;100533.91;5032405;28;19928;-75
2021/09/18 05:33:06;;;;;;;;;;;;;;;11.53;91.66;100534.88;5047106;28;19956;-76
2021/09/18 05:35:31;;;;;;;;;;;;;;;11.50;93.40;100529.06;5031429;28;20203;-75
2021/09/18 05:37:57;;;;;;;;;;;;;;;11.50;92.83;100537.00;5032584;28;19936;-75
2021/09/18 05:40:24;;;;;;;;;;;;;;;11.54;93.04;100539.19;5032116;28;20097;-75
2021/09/18 05:42:50;;;;;;;;;;;;;;;11.55;92.89;100535.53;5032218;28;20416;-75
2021/09/18 05:45:15;;;;;;;;;;;;;;;11.53;92.97;100536.69;5031359;28;19922;-75
2021/09/18 05:47:40;;;;;;;;;;;;;;;11.54;92.22;100536.53;5031948;28;19925;-75
2021/09/18 05:50:06;;;;;;;;;;;;;;;11.59;93.27;100528.94;5031089;28;19921;-76
2021/09/18 05:52:32;;;;;;;;;;;;;;;11.65;93.25;100533.59;5031249;28;20386;-76
2021/09/18 05:54:57;;;;;;;;;;;;;;;11.83;93.29;100538.00;5031948;28;20126;-76
2021/09/18 05:57:22;;;;;;;;;;;;;;;12.17;91.81;100526.53;5047170;28;20493;-74
2021/09/18 05:59:48;;;;;;;;;;;;;;;12.49;90.54;100531.91;5032027;28;19925;-75
2021/09/18 06:02:13;;;;;;;;;;;;;;;12.92;90.72;100537.88;5031303;28;20416;-75
2021/09/18 06:04:38;;;;;;;;;;;;;;;13.25;88.52;100535.19;5031013;28;19925;-74
2021/09/18 06:07:03;;;;;;;;;;;;;;;13.46;89.04;100536.50;5031297;28;20393;-73
2021/09/18 06:09:28;;;;;;;;;;;;;;;13.73;88.83;100533.44;5031038;28;19933;-74
2021/09/18 06:11:53;;;;;;;;;;;;;;;14.11;84.86;100530.06;5032253;28;20312;-74
2021/09/18 06:14:19;;;;;;;;;;;;;;;14.48;87.05;100529.34;5028885;28;20016;-74
2021/09/18 06:16:44;;;;;;;;;;;;;;;14.72;86.69;100536.34;5031791;28;19921;-74
2021/09/18 06:19:11;;;;;;;;;;;;;;;14.91;82.16;100532.38;5032160;28;19948;-72
2021/09/18 06:21:37;;;;;;;;;;;;;;;15.09;81.56;100534.72;5032712;28;19917;-74
2021/09/18 06:24:04;;;;;;;;;;;;;;;15.10;79.11;100533.69;5031519;28;19921;-74
2021/09/18 06:26:30;;;;;;;;;;;;;;;15.43;82.55;100536.03;5047312;28;20404;-74
2021/09/18 06:28:55;;;;;;;;;;;;;;;15.66;79.72;100538.59;5031774;28;20306;-74
2021/09/18 06:31:20;;;;;;;;;;;;;;;16.12;77.50;100546.38;5032042;28;19971;-74
2021/09/18 06:33:45;;;;;;;;;;;;;;;16.11;77.64;100544.72;5030828;28;19943;-74
2021/09/18 06:36:11;;;;;;;;;;;;;;;16.41;76.87;100536.63;5030904;28;20362;-74
2021/09/18 06:38:36;;;;;;;;;;;;;;;16.53;72.54;100535.94;5032291;28;19917;-74
2021/09/18 06:41:01;;;;;;;;;;;;;;;16.47;73.93;100533.19;5031731;28;19925;-74
2021/09/18 06:43:28;;;;;;;;;;;;;;;16.74;75.10;100536.97;5031203;28;19995;-73
2021/09/18 06:45:54;;;;;;;;;;;;;;;17.01;73.25;100542.53;5031806;28;20411;-73
2021/09/18 06:48:19;;;;;;;;;;;;;;;17.16;76.10;100543.25;5031783;28;19921;-73
2021/09/18 06:50:44;;;;;;;;;;;;;;;17.58;71.51;100534.28;5032115;28;19932;-73
2021/09/18 06:53:09;;;;;;;;;;;;;;;17.66;70.17;100538.63;5032786;28;20302;-74
2021/09/18 06:55:35;;;;;;;;;;;;;;;17.89;68.21;100537.56;5032533;28;19921;-75
2021/09/18 06:58:00;;;;;;;;;;;;;;;18.39;71.77;100538.94;5031626;28;20016;-74
2021/09/18 07:00:26;;;;;;;;;;;;;;;18.94;72.79;100540.69;5005461;23;19926;-74
2021/09/18 07:02:51;;;;;;;;;;;;;;;19.38;68.53;100540.03;4980297;28;19968;-74
2021/09/18 07:05:16;;;;;;;;;;;;;;;19.92;65.37;100532.66;4972409;28;20358;-74
2021/09/18 07:07:42;;;;;;;;;;;;;;;20.34;65.21;100539.25;4961369;28;19929;-74
2021/09/18 07:10:07;;;;;;;;;;;;;;;20.52;66.13;100543.91;4963515;28;20009;-74
2021/09/18 07:12:32;;;;;;;;;;;;;;;20.66;64.14;100541.13;4963929;28;20386;-75
2021/09/18 07:14:57;;;;;;;;;;;;;;;20.97;62.71;100551.88;4951687;28;20055;-74
2021/09/18 07:17:23;;;;;;;;;;;;;;;20.41;60.24;100544.59;4953509;28;19962;-74
2021/09/18 07:19:48;;;;;;;;;;;;;;;20.79;60.36;100551.81;4968555;28;19957;-74
2021/09/18 07:22:13;;;;;;;;;;;;;;;20.82;63.26;100545.16;4966952;28;19956;-74
2021/09/18 07:24:38;;;;;;;;;;;;;;;21.16;61.86;100554.59;4961075;28;20368;-74
2021/09/18 07:27:04;;;;;;;;;;;;;;;21.61;60.25;100549.00;4965868;28;20024;-74
2021/09/18 07:29:29;;;;;;;;;;;;;;;21.87;60.06;100555.94;4962482;28;19926;-74
2021/09/18 07:31:54;;;;;;;;;;;;;;;22.04;57.73;100565.03;4966523;28;20019;-74
2021/09/18 07:34:20;;;;;;;;;;;;;;;21.90;56.19;100560.88;4954984;28;20041;-74
2021/09/18 07:36:45;;;;;;;;;;;;;;;21.93;57.72;100563.13;4950485;28;19922;-74
2021/09/18 07:39:10;;;;;;;;;;;;;;;21.97;57.85;100564.28;4955993;28;20271;-74
2021/09/18 07:41:35;;;;;;;;;;;;;;;22.24;57.06;100567.53;4964625;28;20211;-74
2021/09/18 07:44:01;;;;;;;;;;;;;;;22.10;57.60;100571.41;4958591;28;19925;-74
2021/09/18 07:46:29;;;;;;;;;;;;;;;22.64;56.46;100569.66;4968331;28;19923;-74
2021/09/18 07:48:54;;;;;;;;;;;;;;;22.25;54.95;100574.53;4958897;28;19994;-74
2021/09/18 07:51:20;;;;;;;;;;;;;;;22.62;58.69;100566.38;4948159;28;20405;-74
2021/09/18 07:53:45;;;;;;;;;;;;;;;23.41;56.42;100574.22;4979478;28;20302;-74
2021/09/18 07:56:10;;;;;;;;;;;;;;;23.90;52.80;100572.03;4953623;28;20291;-74
2021/09/18 07:58:35;;;;;;;;;;;;;;;24.07;52.10;100574.78;4955358;28;20403;-74
2021/09/18 08:01:00;;;;;;;;;;;;;;;23.68;52.27;100576.41;4979258;28;19922;-75
2021/09/18 08:03:25;;;;;;;;;;;;;;;23.62;53.05;100580.88;4955196;28;19989;-76
2021/09/18 08:05:51;;;;;;;;;;;;;;;23.64;52.24;100577.94;4960052;28;20428;-76
2021/09/18 08:08:16;;;;;;;;;;;;;;;23.60;54.13;100580.28;4980746;28;19931;-75
2021/09/18 08:10:41;;;;;;;;;;;;;;;24.02;54.92;100588.22;4962119;28;19969;-75
2021/09/18 08:13:06;;;;;;;;;;;;;;;23.95;54.69;100590.22;4974794;28;19926;-76
2021/09/18 08:15:32;;;;;;;;;;;;;;;24.77;51.13;100589.91;4953678;28;19962;-76
2021/09/18 08:17:57;;;;;;;;;;;;;;;24.90;52.00;100586.06;4964703;28;19926;-76
2021/09/18 08:20:22;;;;;;;;;;;;;;;25.27;51.63;100590.22;4962581;28;19991;-76
2021/09/18 08:22:48;;;;;;;;;;;;;;;25.45;50.84;100589.91;4968087;28;19922;-77
2021/09/18 08:25:13;;;;;;;;;;;;;;;26.18;49.54;100590.59;4965810;28;19949;-76
2021/09/18 08:27:39;;;;;;;;;;;;;;;26.26;47.00;100592.84;4955719;28;19958;-76
2021/09/18 08:30:05;;;;;;;;;;;;;;;26.53;46.99;100577.66;4959395;28;20264;-76
2021/09/18 08:32:30;;;;;;;;;;;;;;;26.58;45.81;100586.72;4961220;28;20345;-76
2021/09/18 08:34:55;;;;;;;;;;;;;;;26.93;47.10;100581.84;4960314;28;20012;-77
2021/09/18 08:37:21;;;;;;;;;;;;;;;26.98;43.64;100580.00;4963616;28;19972;-76
2021/09/18 08:39:46;;;;;;;;;;;;;;;27.29;44.39;100577.53;4958879;28;19923;-75
2021/09/18 08:42:11;;;;;;;;;;;;;;;27.54;42.51;100582.28;4969365;28;19918;-76
2021/09/18 08:44:37;;;;;;;;;;;;;;;27.04;43.14;100578.97;4963043;28;19927;-75
2021/09/18 08:47:03;;;;;;;;;;;;;;;27.08;42.62;100581.97;4954364;28;19930;-76
2021/09/18 08:49:29;;;;;;;;;;;;;;;27.58;41.20;100588.00;4952589;28;19941;-76
2021/09/18 08:51:54;;;;;;;;;;;;;;;27.27;43.34;100591.38;4956971;28;20448;-74
2021/09/18 08:54:19;;;;;;;;;;;;;;;27.85;43.35;100590.63;4954723;28;20426;-76
2021/09/18 08:56:44;;;;;;;;;;;;;;;27.93;43.16;100588.19;4939988;28;19919;-76
2021/09/18 08:59:10;;;;;;;;;;;;;;;28.10;41.91;100590.72;4966937;28;20001;-76
2021/09/18 09:01:35;;;;;;;;;;;;;;;28.36;43.05;100588.91;4971199;28;19962;-76
2021/09/18 09:04:02;;;;;;;;;;;;;;;28.43;41.78;100587.81;4954854;28;20379;-76
2021/09/18 09:06:44;;;;;;;;;;;;;;;28.89;40.50;100579.69;4965361;28;20397;-77
2021/09/18 09:09:09;;;;;;;;;;;;;;;29.40;38.70;100590.56;4951912;28;19926;-75
2021/09/18 09:11:34;;;;;;;;;;;;;;;29.24;39.82;100581.59;4961560;28;19922;-76
2021/09/18 09:14:04;;;;;;;;;;;;;;;28.89;39.42;100585.97;4958155;28;20021;-77
2021/09/18 09:16:31;;;;;;;;;;;;;;;28.72;41.57;100590.84;4959789;28;19922;-76
2021/09/18 09:18:57;;;;;;;;;;;;;;;28.80;40.08;100585.69;4958126;28;19950;-74
2021/09/18 09:21:24;;;;;;;;;;;;;;;29.12;40.09;100583.81;4960200;28;20489;-74
2021/09/18 09:24:10;;;;;;;;;;;;;;;29.43;40.75;100587.28;4968980;28;20056;-74
2021/09/18 09:26:37;;;;;;;;;;;;;;;29.14;40.91;100587.88;4967197;28;20133;-75
2021/09/18 09:29:02;;;;;;;;;;;;;;;28.09;39.68;100582.84;4957595;28;19968;-75
2021/09/18 09:31:28;;;;;;;;;;;;;;;27.40;43.45;100581.13;4954342;28;20362;-74
2021/09/18 09:34:06;;;;;;;;;;;;;;;26.05;44.25;100580.16;4969332;28;19918;-74
2021/09/18 09:36:40;;;;;;;;;;;;;;;25.66;46.58;100576.66;4956855;28;20302;-74
2021/09/18 09:39:06;;;;;;;;;;;;;;;25.59;44.89;100574.94;4961720;28;19922;-75
2021/09/18 09:41:39;;;;;;;;;;;;;;;25.39;47.75;100570.06;4941183;28;19926;-75
2021/09/18 09:44:08;;;;;;;;;;;;;;;25.00;48.14;100572.72;4949781;28;19969;-75
2021/09/18 09:46:33;;;;;;;;;;;;;;;24.92;48.48;100566.88;4954980;28;19929;-75
2021/09/18 09:49:06;;;;;;;;;;;;;;;24.98;47.27;100569.44;4963195;28;19938;-75
2021/09/18 09:51:31;;;;;;;;;;;;;;;24.12;49.73;100569.53;4970332;28;19930;-75
2021/09/18 09:54:16;;;;;;;;;;;;;;;24.26;49.72;100572.72;4971939;28;19934;-74
2021/09/18 09:56:42;;;;;;;;;;;;;;;23.84;50.49;100561.38;4956013;28;19922;-76
2021/09/18 09:59:07;;;;;;;;;;;;;;;23.22;52.45;100561.91;4935926;28;19964;-74
2021/09/18 10:01:32;;;;;;;;;;;;;;;23.40;51.83;100560.94;4939711;28;19946;-74
2021/09/18 10:03:57;;;;;;;;;;;;;;;22.95;51.79;100559.59;4945825;28;20402;-75
2021/09/18 10:06:23;;;;;;;;;;;;;;;22.68;53.07;100557.34;4953196;28;20303;-74
2021/09/18 10:08:49;;;;;;;;;;;;;;;22.95;53.64;100556.09;4948552;28;20414;-75
2021/09/18 10:11:15;;;;;;;;;;;;;;;23.26;52.29;100558.50;4934405;29;19918;-75
2021/09/18 10:13:41;;;;;;;;;;;;;;;23.00;53.81;100554.38;4952609;28;19969;-74
2021/09/18 10:16:07;;;;;;;;;;;;;;;23.00;54.65;100557.09;4959697;28;20326;-74
2021/09/18 10:18:34;;;;;;;;;;;;;;;22.98;52.86;100555.66;4960380;28;19968;-74
2021/09/18 10:23:29;;;;;;;;;;;;;;;22.84;53.32;100553.16;4956361;28;20371;-75
2021/09/18 10:25:56;;;;;;;;;;;;;;;22.74;53.88;100546.69;4972562;28;19973;-74
2021/09/18 10:28:24;;;;;;;;;;;;;;;22.81;53.82;100540.16;4971567;28;19934;-74
2021/09/18 10:30:52;;;;;;;;;;;;;;;22.75;53.42;100534.84;4943697;28;20427;-74
2021/09/18 10:33:33;;;;;;;;;;;;;;;22.73;52.91;100537.78;4961078;28;20342;-75
2021/09/18 10:36:01;;;;;;;;;;;;;;;22.38;54.83;100535.00;4958538;28;20168;-75
2021/09/18 10:38:28;;;;;;;;;;;;;;;22.35;53.80;100533.56;4954627;28;19923;-75
2021/09/18 10:40:54;;;;;;;;;;;;;;;22.17;54.40;100530.94;4955769;28;19960;-75
2021/09/18 10:43:24;;;;;;;;;;;;;;;22.19;53.60;100534.19;4953863;28;19923;-75
2021/09/18 10:45:49;;;;;;;;;;;;;;;22.27;54.50;100523.97;4955145;28;20012;-75
2021/09/18 10:48:33;;;;;;;;;;;;;;;22.15;54.50;100533.84;4951232;28;20053;-75
2021/09/18 10:50:58;;;;;;;;;;;;;;;21.91;54.39;100534.78;4969850;28;19922;-74
2021/09/18 10:53:23;;;;;;;;;;;;;;;21.88;56.54;100532.53;4952871;28;20009;-75
2021/09/18 10:55:50;;;;;;;;;;;;;;;21.87;57.28;100533.59;4953340;28;20101;-75
2021/09/18 10:58:16;;;;;;;;;;;;;;;21.81;55.74;100529.94;4954195;28;20342;-75
2021/09/18 11:00:43;;;;;;;;;;;;;;;21.82;56.26;100532.38;4956265;28;19923;-75
2021/09/18 11:03:10;;;;;;;;;;;;;;;21.81;55.17;100529.94;4952850;28;19923;-75
2021/09/18 11:05:35;;;;;;;;;;;;;;;21.95;57.24;100530.56;4953438;28;19972;-74
2021/09/18 11:08:01;;;;;;;;;;;;;;;21.92;58.64;100520.25;4961534;28;20390;-75
2021/09/18 11:10:26;;;;;;;;;;;;;;;22.01;55.94;100518.91;4971523;28;19922;-75
2021/09/18 11:13:07;;;;;;;;;;;;;;;22.13;55.88;100517.06;4966952;28;19973;-75
2021/09/18 11:15:40;;;;;;;;;;;;;;;22.15;54.60;100519.56;4969100;28;19925;-74
2021/09/18 11:18:09;;;;;;;;;;;;;;;22.05;53.68;100512.03;4961448;28;19922;-74
2021/09/18 11:20:35;;;;;;;;;;;;;;;21.90;55.29;100501.63;4953622;28;20370;-75
2021/09/18 11:23:01;;;;;;;;;;;;;;;21.85;57.30;100506.88;4953390;28;19922;-75
2021/09/18 11:25:30;;;;;;;;;;;;;;;21.96;55.78;100505.31;4963078;28;19968;-75
2021/09/18 11:28:01;;;;;;;;;;;;;;;22.13;53.78;100495.53;4972367;28;20058;-75
2021/09/18 11:30:43;;;;;;;;;;;;;;;22.20;54.37;100504.38;4975347;28;20466;-74
2021/09/18 11:33:09;;;;;;;;;;;;;;;22.20;54.81;100501.69;4963857;28;19922;-75
2021/09/18 11:35:38;;;;;;;;;;;;;;;22.21;55.16;100499.78;4975921;28;19925;-75
2021/09/18 11:38:05;;;;;;;;;;;;;;;22.14;54.61;100501.72;4956898;28;19990;-75
2021/09/18 11:40:31;;;;;;;;;;;;;;;22.14;54.84;100497.16;4968254;28;19922;-75
2021/09/18 11:42:56;;;;;;;;;;;;;;;22.27;56.02;100502.41;4980670;28;19922;-75
2021/09/18 11:45:23;;;;;;;;;;;;;;;22.45;55.05;100498.84;4970395;28;19961;-75
2021/09/18 11:47:58;;;;;;;;;;;;;;;22.49;54.19;100499.19;4987725;28;20375;-75
2021/09/18 11:50:27;;;;;;;;;;;;;;;22.58;53.92;100497.78;4959356;28;19927;-75
2021/09/18 11:52:53;;;;;;;;;;;;;;;22.73;53.89;100494.63;4957935;28;20410;-75
2021/09/18 11:55:30;;;;;;;;;;;;;;;22.61;55.78;100493.81;4956127;28;20013;-75
2021/09/18 11:58:02;;;;;;;;;;;;;;;22.74;54.16;100488.22;4955772;28;19958;-75
2021/09/18 12:00:28;;;;;;;;;;;;;;;22.83;53.48;100478.69;4973365;28;20416;-76
2021/09/18 12:02:59;;;;;;;;;;;;;;;22.76;54.63;100478.00;4963631;28;20172;-74
2021/09/18 12:05:24;;;;;;;;;;;;;;;22.81;54.24;100478.13;4936275;29;19925;-74
2021/09/18 12:07:51;;;;;;;;;;;;;;;22.75;55.48;100470.16;4960751;28;20438;-74
2021/09/18 12:10:16;;;;;;;;;;;;;;;23.05;52.99;100470.91;4950074;28;20307;-74
2021/09/18 12:12:44;;;;;;;;;;;;;;;23.24;53.35;100468.03;4963067;28;19926;-74
2021/09/18 12:15:10;;;;;;;;;;;;;;;23.23;52.95;100472.63;4945285;28;19923;-74
2021/09/18 12:17:40;;;;;;;;;;;;;;;23.23;54.49;100461.00;4967542;28;20008;-73
2021/09/18 12:20:11;;;;;;;;;;;;;;;23.05;53.85;100470.09;4954934;28;19981;-73
2021/09/18 12:22:37;;;;;;;;;;;;;;;23.34;54.22;100467.47;4963298;28;19933;-74
2021/09/18 12:25:02;;;;;;;;;;;;;;;23.57;53.71;100471.97;4972282;28;20388;-74
2021/09/18 12:27:32;;;;;;;;;;;;;;;23.23;53.93;100464.53;4962450;28;20295;-74
2021/09/18 12:30:01;;;;;;;;;;;;;;;23.39;54.04;100468.38;4964777;28;19933;-74
2021/09/18 12:32:26;;;;;;;;;;;;;;;23.46;53.00;100468.25;4968700;28;19968;-74